Time;durP1;ratioP1;P1;durP2;ratioP2;P2;SDS_P1;SDS_P2;PMS_P1;PMS_P2;Temp;Humidity;BMP_temperature;BMP_pressure;BME280_temperature;BME280_humidity;BME280_pressure;Samples;Min_cycle;Max_cycle;Signal;HPM_P1;HPM_P2
2024/03/20 00:01:11;;;;;;;6.38;2.85;;;;;;;;;;10194418;28;20043;-75
2024/03/20 00:06:13;;;;;;;5.40;2.93;;;;;;;;;;10205155;28;20047;-75
2024/03/20 00:11:14;;;;;;;9.95;2.88;;;;;;;;;;10194816;28;20459;-76
2024/03/20 00:16:24;;;;;;;6.03;2.88;;;;;;;;;;10192788;28;20376;-76
2024/03/20 00:21:28;;;;;;;5.22;2.40;;;;;;;;;;10194299;28;20052;-77
2024/03/20 00:26:30;;;;;;;5.45;2.83;;;;;;;;;;10188564;28;20054;-76
2024/03/20 00:31:35;;;;;;;7.28;2.92;;;;;;;;;;10196295;28;20054;-76
2024/03/20 00:36:37;;;;;;;6.03;2.75;;;;;;;;;;10189104;28;20044;-76
2024/03/20 00:41:39;;;;;;;9.57;3.58;;;;;;;;;;10193170;28;20397;-77
2024/03/20 00:46:43;;;;;;;7.35;3.35;;;;;;;;;;10189876;28;20043;-76
2024/03/20 00:51:46;;;;;;;7.85;3.10;;;;;;;;;;10192556;28;20434;-77
2024/03/20 00:56:48;;;;;;;6.03;2.90;;;;;;;;;;10192851;28;20557;-76
2024/03/20 01:01:51;;;;;;;6.18;3.13;;;;;;;;;;10193741;28;20109;-76
2024/03/20 01:06:53;;;;;;;8.27;2.97;;;;;;;;;;10191012;28;20573;-76
2024/03/20 01:11:57;;;;;;;7.30;3.10;;;;;;;;;;10179368;28;20046;-76
2024/03/20 01:17:00;;;;;;;6.93;2.28;;;;;;;;;;10173844;28;20035;-76
2024/03/20 01:22:04;;;;;;;4.63;2.07;;;;;;;;;;10201412;28;20122;-75
2024/03/20 01:27:07;;;;;;;6.63;3.03;;;;;;;;;;10191430;28;20120;-75
2024/03/20 01:32:13;;;;;;;4.55;2.28;;;;;;;;;;10188687;28;20298;-75
2024/03/20 01:37:15;;;;;;;6.80;2.72;;;;;;;;;;10190543;28;20046;-75
2024/03/20 01:42:17;;;;;;;7.75;3.25;;;;;;;;;;10171328;28;20031;-74
2024/03/20 01:47:23;;;;;;;7.05;2.28;;;;;;;;;;10188221;28;20441;-74
2024/03/20 01:52:25;;;;;;;4.70;2.33;;;;;;;;;;10194408;28;20452;-75
2024/03/20 01:57:27;;;;;;;5.38;2.00;;;;;;;;;;10189577;28;20075;-75
2024/03/20 02:02:31;;;;;;;5.57;2.25;;;;;;;;;;10187775;28;20516;-76
2024/03/20 02:07:33;;;;;;;4.20;2.42;;;;;;;;;;10188385;28;20055;-75
2024/03/20 02:12:36;;;;;;;4.82;2.15;;;;;;;;;;10184727;28;20174;-75
2024/03/20 02:17:43;;;;;;;2.85;1.20;;;;;;;;;;10186409;28;20040;-76
2024/03/20 02:22:46;;;;;;;5.68;2.33;;;;;;;;;;10187481;28;20036;-76
2024/03/20 02:27:48;;;;;;;3.53;1.03;;;;;;;;;;10188498;28;20039;-75
2024/03/20 02:32:52;;;;;;;4.13;2.20;;;;;;;;;;10192591;28;20493;-74
2024/03/20 02:37:56;;;;;;;2.63;1.33;;;;;;;;;;10200110;28;20071;-76
2024/03/20 02:42:58;;;;;;;5.80;2.10;;;;;;;;;;10194071;28;20039;-75
2024/03/20 02:48:00;;;;;;;3.67;1.90;;;;;;;;;;10198089;28;20581;-75
2024/03/20 02:53:04;;;;;;;4.38;2.00;;;;;;;;;;10197791;28;20212;-75
2024/03/20 02:58:06;;;;;;;4.35;2.08;;;;;;;;;;10197065;28;20095;-77
2024/03/20 03:03:08;;;;;;;4.22;1.92;;;;;;;;;;10198657;28;20040;-77
2024/03/20 03:08:12;;;;;;;3.90;1.95;;;;;;;;;;10198131;28;20118;-75
2024/03/20 03:13:14;;;;;;;5.43;2.10;;;;;;;;;;10191847;28;20047;-74
2024/03/20 03:18:16;;;;;;;5.68;2.22;;;;;;;;;;10199742;28;20047;-73
2024/03/20 03:23:19;;;;;;;4.00;2.00;;;;;;;;;;10192761;28;20059;-74
2024/03/20 03:28:24;;;;;;;5.28;2.25;;;;;;;;;;10196580;28;20039;-74
2024/03/20 03:33:26;;;;;;;4.75;2.08;;;;;;;;;;10182021;28;20052;-74
2024/03/20 03:38:30;;;;;;;4.88;1.80;;;;;;;;;;10196432;28;20457;-73
2024/03/20 03:43:31;;;;;;;5.65;2.30;;;;;;;;;;10196286;28;20069;-74
2024/03/20 03:48:36;;;;;;;3.33;1.90;;;;;;;;;;10202346;28;20055;-76
2024/03/20 03:53:39;;;;;;;6.22;2.08;;;;;;;;;;10199418;28;20496;-76
2024/03/20 03:58:40;;;;;;;5.43;2.00;;;;;;;;;;10195473;28;20126;-78
2024/03/20 04:03:42;;;;;;;2.08;1.40;;;;;;;;;;10179197;28;20048;-76
2024/03/20 04:08:46;;;;;;;1.88;1.02;;;;;;;;;;10193893;28;20058;-74
2024/03/20 04:13:48;;;;;;;1.63;1.20;;;;;;;;;;10206004;28;20381;-74
2024/03/20 04:18:50;;;;;;;4.63;2.25;;;;;;;;;;10194295;28;20111;-74
2024/03/20 04:23:54;;;;;;;3.90;2.10;;;;;;;;;;10190573;28;20074;-74
2024/03/20 04:28:56;;;;;;;3.15;1.83;;;;;;;;;;10195072;28;20054;-75
2024/03/20 04:33:58;;;;;;;3.33;1.58;;;;;;;;;;10188767;28;20039;-74
2024/03/20 04:39:02;;;;;;;3.42;1.80;;;;;;;;;;10197241;28;20110;-75
2024/03/20 04:44:04;;;;;;;3.83;1.90;;;;;;;;;;10192951;28;20047;-74
2024/03/20 04:49:06;;;;;;;2.60;1.45;;;;;;;;;;10199230;28;20036;-75
2024/03/20 04:54:10;;;;;;;3.20;1.77;;;;;;;;;;10196156;28;20467;-75
2024/03/20 04:59:12;;;;;;;3.90;1.67;;;;;;;;;;10190810;28;20044;-75
2024/03/20 05:04:14;;;;;;;3.58;1.83;;;;;;;;;;10190774;28;20184;-75
2024/03/20 05:09:17;;;;;;;4.68;1.60;;;;;;;;;;10197992;28;20055;-74
2024/03/20 05:14:19;;;;;;;4.10;1.75;;;;;;;;;;10199863;28;20050;-74
2024/03/20 05:19:21;;;;;;;3.15;1.65;;;;;;;;;;10180691;28;20200;-74
2024/03/20 05:24:25;;;;;;;2.88;1.27;;;;;;;;;;10190005;28;20566;-74
2024/03/20 05:29:27;;;;;;;2.72;1.52;;;;;;;;;;10189648;28;20373;-75
2024/03/20 05:34:29;;;;;;;4.07;2.03;;;;;;;;;;10193744;28;20052;-74
2024/03/20 05:39:33;;;;;;;2.78;1.23;;;;;;;;;;10186797;28;20052;-74
2024/03/20 05:44:36;;;;;;;4.63;1.60;;;;;;;;;;10185408;28;20043;-74
2024/03/20 05:49:38;;;;;;;3.17;1.77;;;;;;;;;;10187653;28;20455;-75
2024/03/20 05:54:42;;;;;;;3.28;1.02;;;;;;;;;;10190644;28;20043;-76
2024/03/20 05:59:44;;;;;;;3.78;1.60;;;;;;;;;;10190427;28;20043;-76
2024/03/20 06:04:46;;;;;;;2.47;1.00;;;;;;;;;;10185912;28;20099;-74
2024/03/20 06:09:49;;;;;;;4.57;1.65;;;;;;;;;;10191505;28;20040;-75
2024/03/20 06:14:53;;;;;;;3.38;1.95;;;;;;;;;;10187613;28;20051;-74
2024/03/20 06:19:57;;;;;;;5.30;1.92;;;;;;;;;;10188168;28;20050;-75
2024/03/20 06:25:06;;;;;;;5.18;2.15;;;;;;;;;;10188809;28;20077;-75
2024/03/20 06:30:11;;;;;;;6.70;2.55;;;;;;;;;;10185435;28;20167;-77
2024/03/20 06:35:18;;;;;;;4.07;1.75;;;;;;;;;;10168782;28;20051;-75
2024/03/20 06:40:32;;;;;;;5.32;2.10;;;;;;;;;;10181608;28;20040;-75
2024/03/20 06:45:39;;;;;;;5.75;2.10;;;;;;;;;;10172416;28;20130;-76
2024/03/20 06:50:41;;;;;;;3.97;2.08;;;;;;;;;;10169074;28;20504;-75
2024/03/20 06:55:48;;;;;;;8.45;2.10;;;;;;;;;;10176159;28;20071;-75
2024/03/20 07:00:50;;;;;;;7.05;2.28;;;;;;;;;;10182219;28;20039;-75
2024/03/20 07:05:53;;;;;;;2.50;1.97;;;;;;;;;;10185783;28;20102;-77
2024/03/20 07:10:59;;;;;;;3.08;1.92;;;;;;;;;;10184880;28;20627;-76
2024/03/20 07:16:02;;;;;;;3.00;2.03;;;;;;;;;;10188038;28;20202;-76
2024/03/20 07:21:04;;;;;;;2.72;2.00;;;;;;;;;;10198148;28;20043;-76
2024/03/20 07:26:07;;;;;;;5.22;1.60;;;;;;;;;;10192447;28;20398;-77
2024/03/20 07:31:09;;;;;;;2.85;2.00;;;;;;;;;;10188984;28;20035;-76
2024/03/20 07:36:11;;;;;;;2.40;1.90;;;;;;;;;;10192805;28;20049;-77
2024/03/20 07:41:15;;;;;;;2.53;1.90;;;;;;;;;;10175640;28;20044;-76
2024/03/20 07:46:17;;;;;;;3.85;2.10;;;;;;;;;;10193058;28;20437;-76
2024/03/20 07:51:20;;;;;;;4.45;2.10;;;;;;;;;;10191000;28;20035;-76
2024/03/20 07:56:24;;;;;;;4.20;2.20;;;;;;;;;;10196553;28;20051;-77
2024/03/20 08:01:26;;;;;;;3.60;2.40;;;;;;;;;;10205866;28;20670;-76
2024/03/20 08:06:29;;;;;;;4.90;2.60;;;;;;;;;;10174672;28;20508;-76
2024/03/20 08:11:32;;;;;;;6.35;2.40;;;;;;;;;;10191662;28;20040;-76
2024/03/20 08:16:34;;;;;;;5.13;2.53;;;;;;;;;;10196217;28;20039;-76
2024/03/20 08:21:36;;;;;;;6.13;2.63;;;;;;;;;;10176368;28;20047;-77
2024/03/20 08:26:40;;;;;;;2.22;1.80;;;;;;;;;;10186576;28;20058;-82
2024/03/20 08:31:42;;;;;;;3.80;2.45;;;;;;;;;;10194650;28;20098;-79
2024/03/20 08:36:44;;;;;;;2.83;2.30;;;;;;;;;;10193971;28;20146;-80
2024/03/20 08:41:48;;;;;;;5.45;2.05;;;;;;;;;;10176052;28;20039;-80
2024/03/20 08:46:50;;;;;;;3.83;2.38;;;;;;;;;;10191808;28;20262;-80
2024/03/20 08:51:53;;;;;;;3.33;1.92;;;;;;;;;;10191730;28;20032;-81
2024/03/20 08:56:57;;;;;;;4.03;1.98;;;;;;;;;;10174305;28;20065;-81
2024/03/20 09:02:02;;;;;;;3.70;1.85;;;;;;;;;;10189065;28;20550;-81
2024/03/20 09:07:05;;;;;;;3.67;1.92;;;;;;;;;;10177035;28;20046;-81
2024/03/20 09:12:09;;;;;;;2.33;2.00;;;;;;;;;;10189390;28;20801;-81
2024/03/20 09:17:12;;;;;;;2.22;2.00;;;;;;;;;;10175806;28;20055;-80
2024/03/20 09:22:14;;;;;;;2.70;2.10;;;;;;;;;;10189376;28;20130;-82
2024/03/20 09:27:17;;;;;;;2.47;2.03;;;;;;;;;;10192750;28;20149;-82
2024/03/20 09:32:19;;;;;;;2.97;2.17;;;;;;;;;;10191754;28;20051;-82
2024/03/20 09:37:22;;;;;;;2.83;2.10;;;;;;;;;;10185253;28;20054;-81
2024/03/20 09:42:26;;;;;;;2.63;2.42;;;;;;;;;;10184411;28;20500;-81
2024/03/20 09:47:31;;;;;;;5.10;2.20;;;;;;;;;;10191712;28;20056;-81
2024/03/20 09:52:34;;;;;;;2.40;2.20;;;;;;;;;;10190387;28;20051;-81
2024/03/20 09:57:39;;;;;;;2.72;2.22;;;;;;;;;;10186182;28;20459;-81
2024/03/20 10:02:42;;;;;;;3.03;2.00;;;;;;;;;;10188430;28;20043;-83
2024/03/20 10:07:44;;;;;;;2.38;2.15;;;;;;;;;;10176156;28;20062;-82
2024/03/20 10:12:49;;;;;;;2.70;2.40;;;;;;;;;;10175171;29;20062;-81
2024/03/20 10:17:51;;;;;;;2.97;2.10;;;;;;;;;;10178644;28;20528;-82
2024/03/20 10:22:54;;;;;;;2.70;2.35;;;;;;;;;;10208507;28;20043;-82
2024/03/20 10:27:59;;;;;;;2.35;2.15;;;;;;;;;;10195388;28;20048;-82
2024/03/20 10:33:02;;;;;;;3.08;2.67;;;;;;;;;;10172776;28;20040;-82
2024/03/20 10:38:05;;;;;;;2.70;2.10;;;;;;;;;;10180289;28;20051;-82
2024/03/20 10:43:12;;;;;;;4.05;2.10;;;;;;;;;;10198647;28;20129;-83
2024/03/20 10:48:16;;;;;;;3.85;2.63;;;;;;;;;;10202238;28;20452;-83
2024/03/20 10:53:18;;;;;;;3.92;2.40;;;;;;;;;;10205343;28;20031;-83
2024/03/20 10:58:25;;;;;;;3.17;2.20;;;;;;;;;;10215523;28;20099;-82
2024/03/20 11:03:44;;;;;;;2.90;2.10;;;;;;;;;;10186097;28;20067;-82
2024/03/20 11:08:55;;;;;;;2.40;2.20;;;;;;;;;;10201313;28;20058;-84
2024/03/20 11:14:00;;;;;;;3.75;2.47;;;;;;;;;;10208178;28;20047;-81
2024/03/20 11:19:05;;;;;;;3.50;2.30;;;;;;;;;;10211736;28;20417;-83
2024/03/20 11:24:07;;;;;;;2.25;2.03;;;;;;;;;;10217497;28;20548;-83
2024/03/20 11:29:14;;;;;;;2.90;2.50;;;;;;;;;;10216232;28;20047;-83
2024/03/20 11:34:21;;;;;;;2.35;2.10;;;;;;;;;;10219706;28;20043;-84
2024/03/20 11:39:25;;;;;;;2.45;2.20;;;;;;;;;;10222517;28;20044;-84
2024/03/20 11:44:34;;;;;;;2.88;2.05;;;;;;;;;;10206947;28;20055;-83
2024/03/20 11:49:41;;;;;;;3.13;2.10;;;;;;;;;;10233181;28;20122;-83
2024/03/20 11:54:43;;;;;;;2.00;1.85;;;;;;;;;;10230546;28;20063;-84
2024/03/20 11:59:47;;;;;;;2.17;1.98;;;;;;;;;;10224646;28;20135;-83
2024/03/20 12:04:50;;;;;;;2.75;1.80;;;;;;;;;;10230382;28;20059;-84
2024/03/20 12:09:52;;;;;;;2.60;2.00;;;;;;;;;;10224987;28;20043;-83
2024/03/20 12:14:56;;;;;;;4.18;2.88;;;;;;;;;;10232258;28;20047;-82
2024/03/20 12:19:58;;;;;;;2.35;2.08;;;;;;;;;;10222677;28;20044;-83
2024/03/20 12:25:01;;;;;;;2.58;2.00;;;;;;;;;;10236572;28;20044;-81
2024/03/20 12:30:05;;;;;;;2.75;2.00;;;;;;;;;;10235909;28;20131;-82
2024/03/20 12:35:08;;;;;;;2.15;1.73;;;;;;;;;;10214668;28;20115;-83
2024/03/20 12:40:12;;;;;;;3.20;1.90;;;;;;;;;;10209463;28;20046;-83
2024/03/20 12:45:18;;;;;;;2.67;1.90;;;;;;;;;;10232135;28;20081;-83
2024/03/20 12:50:20;;;;;;;2.42;1.70;;;;;;;;;;10222190;28;20051;-81
2024/03/20 12:55:23;;;;;;;1.77;1.48;;;;;;;;;;10223971;28;20079;-82
2024/03/20 13:00:27;;;;;;;2.85;2.40;;;;;;;;;;10216237;28;20047;-82
2024/03/20 13:05:30;;;;;;;1.55;1.40;;;;;;;;;;10208142;28;20544;-81
2024/03/20 13:10:32;;;;;;;2.65;1.75;;;;;;;;;;10223576;28;20051;-81
2024/03/20 13:15:40;;;;;;;3.03;1.50;;;;;;;;;;10224787;28;20058;-82
2024/03/20 13:20:42;;;;;;;2.63;1.38;;;;;;;;;;10226710;28;20050;-82
2024/03/20 13:25:47;;;;;;;2.35;1.88;;;;;;;;;;10212167;28;20080;-82
2024/03/20 13:30:53;;;;;;;2.75;1.60;;;;;;;;;;10214764;28;20050;-80
2024/03/20 13:36:00;;;;;;;3.97;2.72;;;;;;;;;;10220080;28;20046;-82
2024/03/20 13:41:23;;;;;;;2.00;1.80;;;;;;;;;;10229057;29;20050;-83
2024/03/20 13:46:26;;;;;;;3.40;1.95;;;;;;;;;;10229314;28;20073;-81
2024/03/20 13:51:30;;;;;;;3.85;2.28;;;;;;;;;;10205815;28;20063;-81
2024/03/20 13:56:33;;;;;;;5.05;2.40;;;;;;;;;;10224387;28;20326;-80
2024/03/20 14:01:38;;;;;;;2.55;1.90;;;;;;;;;;10231106;28;20473;-80
2024/03/20 14:06:45;;;;;;;3.22;2.00;;;;;;;;;;10222600;28;20592;-80
2024/03/20 14:11:48;;;;;;;2.75;1.60;;;;;;;;;;10205458;28;20047;-81
2024/03/20 14:16:51;;;;;;;3.15;1.42;;;;;;;;;;10208791;28;20058;-81
2024/03/20 14:21:53;;;;;;;2.30;1.50;;;;;;;;;;10212808;28;20039;-81
2024/03/20 14:26:55;;;;;;;5.32;1.70;;;;;;;;;;10225545;28;20058;-81
2024/03/20 14:31:58;;;;;;;3.00;1.70;;;;;;;;;;10223973;28;20119;-81
2024/03/20 14:37:00;;;;;;;3.35;1.52;;;;;;;;;;10203846;28;20047;-79
2024/03/20 14:42:06;;;;;;;2.83;1.90;;;;;;;;;;10207722;28;20093;-80
2024/03/20 14:47:12;;;;;;;1.65;1.55;;;;;;;;;;10206340;28;20055;-81
2024/03/20 14:52:15;;;;;;;2.80;1.75;;;;;;;;;;10213677;28;20043;-80
2024/03/20 14:57:18;;;;;;;2.67;1.85;;;;;;;;;;10205684;29;20479;-80
2024/03/20 15:02:28;;;;;;;2.75;1.73;;;;;;;;;;10186345;28;20519;-78
2024/03/20 15:07:30;;;;;;;2.38;1.40;;;;;;;;;;10197812;28;20043;-79
2024/03/20 15:12:32;;;;;;;3.25;1.60;;;;;;;;;;10186066;28;20129;-79
2024/03/20 15:17:35;;;;;;;2.60;1.50;;;;;;;;;;10201841;28;20058;-80
2024/03/20 15:22:37;;;;;;;5.72;2.20;;;;;;;;;;10197340;28;20140;-80
2024/03/20 15:27:39;;;;;;;4.05;2.25;;;;;;;;;;10200229;28;20051;-79
2024/03/20 15:32:43;;;;;;;4.15;2.17;;;;;;;;;;10200744;28;20044;-79
2024/03/20 15:37:47;;;;;;;6.53;2.78;;;;;;;;;;10183178;29;20066;-79
2024/03/20 15:42:49;;;;;;;6.95;2.75;;;;;;;;;;10196466;28;20741;-79
2024/03/20 15:47:53;;;;;;;6.18;2.70;;;;;;;;;;10200235;28;20043;-79
2024/03/20 15:52:55;;;;;;;7.43;2.60;;;;;;;;;;10192449;28;20491;-78
2024/03/20 15:57:57;;;;;;;5.65;2.88;;;;;;;;;;10189833;28;20043;-78
2024/03/20 16:03:01;;;;;;;5.75;3.00;;;;;;;;;;10192566;28;20050;-78
2024/03/20 16:08:03;;;;;;;6.22;2.58;;;;;;;;;;10193811;28;20387;-80
2024/03/20 16:13:05;;;;;;;4.30;2.60;;;;;;;;;;10186412;28;20062;-79
2024/03/20 16:18:12;;;;;;;7.28;2.85;;;;;;;;;;10190624;28;20043;-79
2024/03/20 16:23:14;;;;;;;7.07;3.00;;;;;;;;;;10194185;28;20492;-79
2024/03/20 16:28:16;;;;;;;6.85;3.22;;;;;;;;;;10189660;28;20481;-79
2024/03/20 16:33:19;;;;;;;6.90;2.97;;;;;;;;;;10198829;28;20051;-80
2024/03/20 16:38:22;;;;;;;6.25;2.90;;;;;;;;;;10205357;28;20051;-79
2024/03/20 16:43:25;;;;;;;6.85;3.00;;;;;;;;;;10182420;28;20725;-78
2024/03/20 16:48:30;;;;;;;5.50;2.88;;;;;;;;;;10201668;28;20043;-78
2024/03/20 16:53:32;;;;;;;6.40;3.28;;;;;;;;;;10191846;28;20055;-78
2024/03/20 16:58:33;;;;;;;7.80;3.50;;;;;;;;;;10178708;28;20539;-78
2024/03/20 17:03:37;;;;;;;5.03;2.67;;;;;;;;;;10193644;28;20183;-77
2024/03/20 17:08:39;;;;;;;9.68;3.03;;;;;;;;;;10189623;28;20055;-78
2024/03/20 17:13:41;;;;;;;7.85;2.60;;;;;;;;;;10193432;28;20837;-78
2024/03/20 17:18:45;;;;;;;8.95;3.08;;;;;;;;;;10194286;28;20509;-84
2024/03/20 17:23:48;;;;;;;6.80;3.30;;;;;;;;;;10194224;28;20052;-78
2024/03/20 17:28:50;;;;;;;4.88;2.60;;;;;;;;;;10197895;28;20120;-78
2024/03/20 17:33:54;;;;;;;8.85;3.50;;;;;;;;;;10195874;28;20524;-79
2024/03/20 17:38:58;;;;;;;6.13;2.92;;;;;;;;;;10197437;28;20039;-78
2024/03/20 17:44:00;;;;;;;8.27;3.08;;;;;;;;;;10193169;28;20260;-80
2024/03/20 17:49:03;;;;;;;6.45;2.92;;;;;;;;;;10197004;28;20520;-78
2024/03/20 17:54:07;;;;;;;6.38;2.88;;;;;;;;;;10194026;28;20062;-78
2024/03/20 17:59:09;;;;;;;8.30;3.40;;;;;;;;;;10196284;28;20389;-78
2024/03/20 18:04:12;;;;;;;7.68;3.17;;;;;;;;;;10195169;28;20548;-77
2024/03/20 18:09:13;;;;;;;9.43;3.67;;;;;;;;;;10189754;28;20055;-76
2024/03/20 18:14:18;;;;;;;11.40;3.92;;;;;;;;;;10195327;28;20090;-78
2024/03/20 18:19:22;;;;;;;9.23;4.15;;;;;;;;;;10194151;28;20040;-78
2024/03/20 18:24:25;;;;;;;;;;;;;;;;;;10194826;28;20393;-78
2024/03/20 18:29:28;;;;;;;10.23;3.90;;;;;;;;;;10195486;28;19949;-77
2024/03/20 18:34:33;;;;;;;10.73;3.40;;;;;;;;;;10178606;28;20111;-77
2024/03/20 18:39:36;;;;;;;9.70;3.80;;;;;;;;;;10199899;28;20051;-78
2024/03/20 18:44:38;;;;;;;8.05;3.28;;;;;;;;;;10193086;28;20780;-78
2024/03/20 18:49:42;;;;;;;8.68;3.00;;;;;;;;;;10193001;28;20047;-77
2024/03/20 18:54:44;;;;;;;11.65;3.70;;;;;;;;;;10179839;28;20342;-78
2024/03/20 18:59:49;;;;;;;11.20;3.35;;;;;;;;;;10192358;28;20126;-77
2024/03/20 19:04:53;;;;;;;8.73;3.30;;;;;;;;;;10190992;28;20038;-80
2024/03/20 19:09:55;;;;;;;12.90;3.55;;;;;;;;;;10173165;28;20071;-78
2024/03/20 19:14:57;;;;;;;8.40;4.10;;;;;;;;;;10202304;28;20040;-80
2024/03/20 19:20:03;;;;;;;11.00;3.70;;;;;;;;;;10203681;28;20188;-81
2024/03/20 19:25:06;;;;;;;8.80;3.70;;;;;;;;;;10211044;28;20102;-81
2024/03/20 19:30:09;;;;;;;11.40;3.70;;;;;;;;;;10203604;28;20096;-79
2024/03/20 19:35:15;;;;;;;10.43;4.07;;;;;;;;;;10203502;28;21662;-81
2024/03/20 19:40:17;;;;;;;11.73;4.07;;;;;;;;;;10195743;28;20039;-81
2024/03/20 19:45:22;;;;;;;10.95;4.22;;;;;;;;;;10200884;28;20077;-81
2024/03/20 19:50:25;;;;;;;10.68;4.20;;;;;;;;;;10205702;28;20051;-82
2024/03/20 19:55:27;;;;;;;12.15;5.22;;;;;;;;;;10202732;28;20500;-80
2024/03/20 20:00:29;;;;;;;10.95;4.43;;;;;;;;;;10200333;28;20055;-81
2024/03/20 20:05:32;;;;;;;10.93;4.20;;;;;;;;;;10201841;28;20047;-80
2024/03/20 20:10:35;;;;;;;13.13;4.90;;;;;;;;;;10202192;28;20048;-81
2024/03/20 20:15:39;;;;;;;17.05;5.40;;;;;;;;;;10198866;28;20051;-80
2024/03/20 20:20:45;;;;;;;11.48;4.80;;;;;;;;;;10204787;28;20050;-80
2024/03/20 20:25:47;;;;;;;13.77;5.20;;;;;;;;;;10210875;28;20050;-80
2024/03/20 20:30:52;;;;;;;12.13;4.70;;;;;;;;;;10206123;28;20115;-80
2024/03/20 20:35:53;;;;;;;;;;;;;;;;;;10200085;28;20464;-75
2024/03/20 20:40:57;;;;;;;13.93;4.35;;;;;;;;;;10182525;28;19933;-76
2024/03/20 20:46:03;;;;;;;15.80;6.38;;;;;;;;;;10182716;28;20043;-74
2024/03/20 20:51:05;;;;;;;10.73;4.03;;;;;;;;;;10205772;28;20499;-76
2024/03/20 20:56:09;;;;;;;11.38;4.72;;;;;;;;;;10196168;28;20416;-76
2024/03/20 21:01:15;;;;;;;12.20;4.75;;;;;;;;;;10208451;28;20055;-76
2024/03/20 21:22:22;;;;;;;17.10;7.25;;;;;;;;;;10205277;28;20125;-75
2024/03/20 21:27:28;;;;;;;16.77;10.83;;;;;;;;;;10195094;28;20047;-75
2024/03/20 21:32:30;;;;;;;10.65;5.25;;;;;;;;;;10172740;28;20054;-75
2024/03/20 21:37:32;;;;;;;10.40;4.03;;;;;;;;;;10189676;28;20537;-75
2024/03/20 21:42:41;;;;;;;8.80;3.50;;;;;;;;;;10194682;28;20508;-77
2024/03/20 21:47:44;;;;;;;30.23;8.27;;;;;;;;;;10166642;28;20053;-75
2024/03/20 21:52:47;;;;;;;14.45;4.05;;;;;;;;;;10194669;28;20099;-76
2024/03/20 21:57:52;;;;;;;11.27;5.35;;;;;;;;;;10211244;28;20059;-75
2024/03/20 22:02:53;;;;;;;7.80;3.85;;;;;;;;;;10194383;28;20759;-74
2024/03/20 22:07:56;;;;;;;10.27;4.05;;;;;;;;;;10192570;28;20126;-76
2024/03/20 22:13:00;;;;;;;7.70;3.88;;;;;;;;;;10178785;28;20039;-76
2024/03/20 22:18:02;;;;;;;11.82;5.07;;;;;;;;;;10180103;28;20047;-75
2024/03/20 22:23:05;;;;;;;10.73;4.63;;;;;;;;;;10207590;28;20429;-75
2024/03/20 22:28:14;;;;;;;11.38;4.22;;;;;;;;;;10192316;28;20041;-75
2024/03/20 22:33:19;;;;;;;11.32;4.47;;;;;;;;;;10194581;28;20047;-75
2024/03/20 22:38:21;;;;;;;11.07;4.33;;;;;;;;;;10194302;28;20403;-75
2024/03/20 22:43:27;;;;;;;10.63;3.80;;;;;;;;;;10194481;28;20306;-75
2024/03/20 22:48:30;;;;;;;7.53;4.05;;;;;;;;;;10202716;28;20492;-75
2024/03/20 22:53:32;;;;;;;12.43;4.33;;;;;;;;;;10211928;28;20477;-75
2024/03/20 22:58:35;;;;;;;9.77;4.13;;;;;;;;;;10197010;28;20110;-74
2024/03/20 23:03:37;;;;;;;9.30;4.03;;;;;;;;;;10198324;28;20491;-76
2024/03/20 23:08:42;;;;;;;5.57;3.25;;;;;;;;;;10200324;28;20066;-75
2024/03/20 23:13:45;;;;;;;7.70;3.63;;;;;;;;;;10189996;28;20043;-75
2024/03/20 23:18:48;;;;;;;5.77;2.80;;;;;;;;;;10194000;28;20099;-75
2024/03/20 23:23:51;;;;;;;5.75;3.10;;;;;;;;;;10199171;28;20303;-74
2024/03/20 23:28:55;;;;;;;10.98;4.40;;;;;;;;;;10198545;28;20058;-75
2024/03/20 23:33:59;;;;;;;14.20;4.13;;;;;;;;;;10211462;28;20070;-77
2024/03/20 23:39:03;;;;;;;9.52;4.57;;;;;;;;;;10202996;28;20291;-77
2024/03/20 23:44:06;;;;;;;9.38;4.32;;;;;;;;;;10199776;28;20878;-77
2024/03/20 23:49:09;;;;;;;9.15;4.45;;;;;;;;;;10197365;28;20062;-77
2024/03/20 23:54:11;;;;;;;8.15;4.18;;;;;;;;;;10194297;28;20492;-75
2024/03/20 23:59:14;;;;;;;9.35;4.35;;;;;;;;;;10195912;28;20047;-75
